Time;durP1;ratioP1;P1;durP2;ratioP2;P2;SDS_P1;SDS_P2;PMS_P1;PMS_P2;Temp;Humidity;BMP_temperature;BMP_pressure;BME280_temperature;BME280_humidity;BME280_pressure;Samples;Min_cycle;Max_cycle;Signal;HPM_P1;HPM_P2
2021/09/10 00:01:55;;;;;;;23.92;17.50;;;20.20;99.90;;;;;;5073180;28;20376;-71
2021/09/10 00:04:21;;;;;;;21.50;18.00;;;20.20;99.90;;;;;;5073312;28;20044;-71
2021/09/10 00:06:46;;;;;;;26.65;18.67;;;20.20;99.90;;;;;;5073237;28;20452;-71
2021/09/10 00:09:12;;;;;;;23.58;19.33;;;20.20;99.90;;;;;;5073130;28;20039;-72
2021/09/10 00:11:38;;;;;;;27.38;20.83;;;20.20;99.90;;;;;;5072998;28;20044;-71
2021/09/10 00:14:03;;;;;;;25.77;21.15;;;20.10;99.90;;;;;;5073332;28;20086;-71
2021/09/10 00:16:29;;;;;;;28.17;23.05;;;20.10;99.90;;;;;;5073564;28;20059;-71
2021/09/10 00:18:55;;;;;;;27.90;22.25;;;20.10;99.90;;;;;;5072845;28;20045;-71
2021/09/10 00:21:20;;;;;;;32.75;23.67;;;20.10;99.90;;;;;;5072963;28;20067;-71
2021/09/10 00:23:46;;;;;;;30.58;22.50;;;20.00;99.90;;;;;;5072995;28;20245;-71
2021/09/10 00:26:12;;;;;;;25.05;20.27;;;20.10;99.90;;;;;;5071963;28;20044;-71
2021/09/10 00:28:37;;;;;;;23.83;20.88;;;20.10;99.90;;;;;;5071906;28;20051;-72
2021/09/10 00:31:03;;;;;;;28.83;21.38;;;20.00;99.90;;;;;;5073091;28;21497;-71
2021/09/10 00:33:29;;;;;;;24.83;19.88;;;20.10;99.90;;;;;;5073827;28;20516;-71
2021/09/10 00:35:55;;;;;;;28.58;21.33;;;20.10;99.90;;;;;;5073227;28;20041;-72
2021/09/10 00:38:21;;;;;;;29.98;23.23;;;20.10;99.90;;;;;;5072093;28;20049;-72
2021/09/10 00:40:47;;;;;;;29.25;23.80;;;20.10;99.90;;;;;;5071553;28;20389;-71
2021/09/10 00:43:13;;;;;;;29.58;24.83;;;20.10;99.90;;;;;;5073324;28;20054;-71
2021/09/10 00:45:45;;;;;;;30.05;22.67;;;20.10;99.90;;;;;;5072814;28;20111;-72
2021/09/10 00:48:11;;;;;;;29.73;23.52;;;20.00;99.90;;;;;;5072810;28;20040;-71
2021/09/10 00:50:37;;;;;;;28.35;22.80;;;20.00;99.90;;;;;;5072388;28;20047;-72
2021/09/10 00:53:03;;;;;;;30.70;24.92;;;19.90;99.90;;;;;;5055037;28;20127;-71
2021/09/10 00:55:30;;;;;;;30.33;22.17;;;20.00;99.90;;;;;;5072861;28;20067;-71
2021/09/10 00:57:55;;;;;;;27.85;22.83;;;20.00;99.90;;;;;;5073086;28;20499;-71
2021/09/10 01:00:21;;;;;;;32.65;24.30;;;20.00;99.90;;;;;;5072311;28;20075;-71
2021/09/10 01:02:47;;;;;;;26.00;21.45;;;19.90;99.90;;;;;;5071623;28;20045;-71
2021/09/10 01:05:13;;;;;;;30.13;23.92;;;20.00;99.90;;;;;;5071310;28;20460;-71
2021/09/10 01:07:40;;;;;;;31.25;24.10;;;20.00;99.90;;;;;;5071849;28;20044;-71
2021/09/10 01:10:06;;;;;;;31.45;24.77;;;20.00;99.90;;;;;;5071435;28;20083;-71
2021/09/10 01:12:32;;;;;;;32.70;23.17;;;19.90;99.90;;;;;;5071301;28;20079;-71
2021/09/10 01:15:00;;;;;;;34.28;24.67;;;19.90;99.90;;;;;;5071265;28;20028;-71
2021/09/10 01:17:26;;;;;;;30.90;23.83;;;19.90;99.90;;;;;;5072525;28;20045;-71
2021/09/10 01:19:51;;;;;;;29.95;23.85;;;19.80;99.90;;;;;;5071226;28;20028;-71
2021/09/10 01:22:17;;;;;;;36.80;25.95;;;19.80;99.90;;;;;;5075525;28;20039;-72
2021/09/10 01:25:10;;;;;;;30.00;23.15;;;19.80;99.90;;;;;;5076126;28;20036;-72
2021/09/10 01:27:36;;;;;;;;;;;19.80;99.90;;;;;;5076646;28;20037;-71
2021/09/10 01:30:02;;;;;;;38.10;25.10;;;19.70;99.90;;;;;;5075724;28;19939;-72
2021/09/10 01:32:28;;;;;;;32.65;24.60;;;19.60;99.90;;;;;;5074548;28;20071;-71
2021/09/10 01:34:53;;;;;;;29.70;22.48;;;19.70;99.90;;;;;;5075896;28;20071;-71
2021/09/10 01:37:19;;;;;;;30.75;23.80;;;19.70;99.90;;;;;;5075740;28;20116;-72
2021/09/10 01:39:45;;;;;;;31.73;23.88;;;19.60;99.90;;;;;;5074570;28;20040;-71
2021/09/10 01:42:10;;;;;;;30.70;25.27;;;19.60;99.90;;;;;;5074420;28;20048;-72
2021/09/10 01:44:36;;;;;;;27.45;22.25;;;19.60;99.90;;;;;;5075724;28;20044;-72
2021/09/10 01:47:01;;;;;;;30.17;22.80;;;19.60;99.90;;;;;;5075898;28;20151;-71
2021/09/10 01:49:27;;;;;;;34.30;23.98;;;19.60;99.90;;;;;;5075558;28;20036;-71
2021/09/10 01:51:53;;;;;;;29.60;22.88;;;19.60;99.90;;;;;;5076045;28;20484;-71
2021/09/10 01:54:18;;;;;;;31.63;22.10;;;19.60;99.90;;;;;;5075500;28;20185;-71
2021/09/10 01:56:44;;;;;;;31.40;22.38;;;19.50;99.90;;;;;;5074339;28;20045;-71
2021/09/10 01:59:09;;;;;;;32.10;22.10;;;19.50;99.90;;;;;;5073952;28;20037;-72
2021/09/10 02:01:35;;;;;;;31.52;21.63;;;19.40;99.90;;;;;;5073978;28;20083;-72
2021/09/10 02:04:01;;;;;;;26.60;20.02;;;19.40;99.90;;;;;;5075470;28;20393;-71
2021/09/10 02:06:27;;;;;;;26.50;21.10;;;19.40;99.90;;;;;;5075262;28;20050;-71
2021/09/10 02:08:53;;;;;;;26.52;19.08;;;19.40;99.90;;;;;;5075002;28;20525;-72
2021/09/10 02:11:19;;;;;;;25.40;18.30;;;19.40;99.90;;;;;;5073941;28;20036;-71
2021/09/10 02:13:47;;;;;;;28.67;21.33;;;19.40;99.90;;;;;;5074141;28;20044;-71
2021/09/10 02:16:13;;;;;;;25.73;18.38;;;19.40;99.90;;;;;;5075467;28;20082;-71
2021/09/10 02:18:40;;;;;;;26.35;21.52;;;19.40;99.90;;;;;;5075283;28;20043;-72
2021/09/10 02:21:06;;;;;;;26.92;21.33;;;19.40;99.90;;;;;;5057033;28;20045;-71
2021/09/10 02:23:32;;;;;;;28.27;21.65;;;19.40;99.90;;;;;;5075050;28;20111;-71
2021/09/10 02:25:58;;;;;;;36.03;24.50;;;19.40;99.90;;;;;;5075049;28;20036;-71
2021/09/10 02:28:24;;;;;;;33.97;26.13;;;19.40;99.90;;;;;;5075182;28;20419;-72
2021/09/10 02:30:50;;;;;;;28.23;24.05;;;19.40;99.90;;;;;;5074751;28;20051;-71
2021/09/10 02:33:16;;;;;;;33.72;27.13;;;19.30;99.90;;;;;;5074126;28;20037;-71
2021/09/10 02:35:41;;;;;;;32.22;26.13;;;19.40;99.90;;;;;;5074097;28;20036;-71
2021/09/10 02:38:07;;;;;;;39.67;27.70;;;19.40;99.90;;;;;;5074663;28;20591;-72
2021/09/10 02:40:33;;;;;;;32.95;25.95;;;19.30;99.90;;;;;;5074256;28;20041;-72
2021/09/10 02:42:58;;;;;;;33.35;26.80;;;19.40;99.90;;;;;;5074537;28;20115;-72
2021/09/10 02:45:24;;;;;;;35.00;27.98;;;19.30;99.90;;;;;;5074696;28;20412;-72
2021/09/10 02:47:50;;;;;;;36.28;28.27;;;19.40;99.90;;;;;;5074384;28;20036;-72
2021/09/10 02:50:16;;;;;;;37.22;27.83;;;19.40;99.90;;;;;;5074070;28;20499;-71
2021/09/10 02:52:41;;;;;;;36.50;26.33;;;19.40;99.90;;;;;;5073110;28;20488;-71
2021/09/10 02:55:08;;;;;;;36.47;26.95;;;19.40;99.90;;;;;;5074635;28;20068;-71
2021/09/10 02:57:34;;;;;;;36.08;27.42;;;19.50;99.90;;;;;;5074249;28;20070;-71
2021/09/10 03:00:01;;;;;;;38.85;27.58;;;19.50;99.90;;;;;;5072662;28;20086;-71
2021/09/10 03:02:26;;;;;;;33.88;26.02;;;19.50;99.90;;;;;;5074074;28;20075;-71
2021/09/10 03:04:52;;;;;;;35.95;26.90;;;19.50;99.90;;;;;;5074340;28;20068;-71
2021/09/10 03:07:18;;;;;;;36.75;29.00;;;19.50;99.90;;;;;;5072966;28;20047;-71
2021/09/10 03:09:43;;;;;;;36.88;28.38;;;19.50;99.90;;;;;;5073977;28;20071;-71
2021/09/10 03:12:09;;;;;;;38.67;30.42;;;19.40;99.90;;;;;;5056011;28;20491;-71
2021/09/10 03:14:35;;;;;;;42.45;30.52;;;19.40;99.90;;;;;;5073914;28;20071;-72
2021/09/10 03:17:01;;;;;;;40.03;28.52;;;19.40;99.90;;;;;;5072908;28;20068;-72
2021/09/10 03:19:28;;;;;;;38.63;29.63;;;19.40;99.90;;;;;;5073378;28;20093;-72
2021/09/10 03:21:54;;;;;;;41.28;31.10;;;19.40;99.90;;;;;;5074134;28;20127;-72
2021/09/10 03:24:20;;;;;;;39.80;30.20;;;19.40;99.90;;;;;;5073694;28;20028;-71
2021/09/10 03:26:45;;;;;;;43.00;31.70;;;19.30;99.90;;;;;;5072696;28;20048;-72
2021/09/10 03:29:12;;;;;;;43.50;32.58;;;19.40;99.90;;;;;;5073676;28;20043;-72
2021/09/10 03:31:38;;;;;;;40.65;31.98;;;19.40;99.90;;;;;;5072815;28;20049;-71
2021/09/10 03:34:04;;;;;;;42.13;31.02;;;19.40;99.90;;;;;;5072545;28;20044;-71
2021/09/10 03:36:30;;;;;;;36.35;29.80;;;19.40;99.90;;;;;;5055590;28;20389;-71
2021/09/10 03:38:55;;;;;;;39.33;30.20;;;19.40;99.90;;;;;;5073211;28;20048;-71
2021/09/10 03:41:21;;;;;;;42.20;32.38;;;19.30;99.90;;;;;;5072422;28;20040;-71
2021/09/10 03:43:49;;;;;;;43.22;32.38;;;19.30;99.90;;;;;;5073281;28;20377;-71
2021/09/10 03:46:15;;;;;;;40.95;30.77;;;19.20;99.90;;;;;;5073711;28;20485;-71
2021/09/10 03:48:41;;;;;;;44.42;32.22;;;19.20;99.90;;;;;;5071787;28;20550;-71
2021/09/10 03:51:07;;;;;;;38.95;30.15;;;19.20;99.90;;;;;;5073193;28;20044;-71
2021/09/10 03:53:33;;;;;;;44.22;34.22;;;19.20;99.90;;;;;;5072103;28;20037;-71
2021/09/10 03:55:58;;;;;;;49.10;34.13;;;19.20;99.90;;;;;;5073374;28;20044;-70
2021/09/10 03:58:24;;;;;;;45.92;34.13;;;19.20;99.90;;;;;;5055189;28;20040;-71
2021/09/10 04:00:49;;;;;;;53.70;37.83;;;19.10;99.90;;;;;;5072003;28;20131;-71
2021/09/10 04:03:15;;;;;;;54.75;39.20;;;19.10;99.90;;;;;;5073963;28;20043;-71
2021/09/10 04:05:41;;;;;;;53.50;39.60;;;19.10;99.90;;;;;;5072247;28;20059;-71
2021/09/10 04:08:06;;;;;;;50.50;34.88;;;19.00;99.90;;;;;;5071896;28;20044;-71
2021/09/10 04:10:34;;;;;;;52.65;37.72;;;19.00;99.90;;;;;;5072771;28;20102;-71
2021/09/10 04:13:00;;;;;;;47.55;37.30;;;19.00;99.90;;;;;;5055379;28;20041;-72
2021/09/10 04:15:27;;;;;;;53.08;39.58;;;19.00;99.90;;;;;;5055748;28;20043;-71
2021/09/10 04:17:53;;;;;;;49.67;37.40;;;19.00;99.90;;;;;;5072124;28;20045;-71
2021/09/10 04:20:19;;;;;;;49.40;37.45;;;19.00;99.90;;;;;;5071725;28;20094;-72
2021/09/10 04:22:44;;;;;;;53.20;40.50;;;19.10;99.90;;;;;;5072908;28;20068;-72
2021/09/10 04:25:11;;;;;;;55.78;39.55;;;19.10;99.90;;;;;;5073271;28;20044;-70
2021/09/10 04:27:36;;;;;;;50.72;37.05;;;19.10;99.90;;;;;;5073131;28;20040;-71
2021/09/10 04:30:03;;;;;;;62.03;43.42;;;19.10;99.90;;;;;;5054828;28;20098;-72
2021/09/10 04:32:29;;;;;;;55.65;41.20;;;19.10;99.90;;;;;;5072800;28;20041;-71
2021/09/10 04:34:55;;;;;;;51.28;39.13;;;19.10;99.90;;;;;;5073209;28;20102;-71
2021/09/10 04:37:21;;;;;;;60.58;43.20;;;19.10;99.90;;;;;;5073049;28;20025;-71
2021/09/10 04:39:47;;;;;;;63.10;44.72;;;19.00;99.90;;;;;;5072721;28;20033;-72
2021/09/10 04:42:12;;;;;;;59.75;42.10;;;19.00;99.90;;;;;;5072880;28;20119;-72
2021/09/10 04:44:38;;;;;;;60.47;43.10;;;19.00;99.90;;;;;;5072824;28;20097;-71
2021/09/10 04:47:03;;;;;;;62.03;45.13;;;19.00;99.90;;;;;;5055111;28;20083;-71
2021/09/10 04:49:29;;;;;;;60.63;43.35;;;19.00;99.90;;;;;;5072883;28;20032;-72
2021/09/10 04:51:54;;;;;;;57.53;43.15;;;19.00;99.90;;;;;;5054820;28;20545;-72
2021/09/10 04:54:20;;;;;;;57.75;43.25;;;19.00;99.90;;;;;;5073065;28;20062;-72
2021/09/10 04:56:46;;;;;;;58.28;42.70;;;19.00;99.90;;;;;;5075309;28;20043;-72
2021/09/10 04:59:12;;;;;;;62.38;44.03;;;19.00;99.90;;;;;;5076158;28;20048;-72
2021/09/10 05:01:41;;;;;;;63.58;45.58;;;19.00;99.90;;;;;;5076217;28;20040;-72
2021/09/10 05:04:06;;;;;;;57.78;42.65;;;19.00;99.90;;;;;;5076832;28;20082;-72
2021/09/10 05:06:32;;;;;;;61.40;43.58;;;19.00;99.90;;;;;;5076769;28;20036;-72
2021/09/10 05:08:58;;;;;;;58.90;43.45;;;19.00;99.90;;;;;;5076506;28;20037;-72
2021/09/10 05:11:24;;;;;;;57.38;44.55;;;19.00;99.90;;;;;;5076287;28;20120;-72
2021/09/10 05:13:50;;;;;;;62.60;43.40;;;19.00;99.90;;;;;;5077211;28;20032;-72
2021/09/10 05:16:16;;;;;;;58.53;42.65;;;19.00;99.90;;;;;;5058290;28;20536;-72
2021/09/10 05:18:42;;;;;;;65.07;45.38;;;19.00;99.90;;;;;;5074670;28;20166;-72
2021/09/10 05:21:08;;;;;;;59.15;43.13;;;19.00;99.90;;;;;;5075936;28;20488;-72
2021/09/10 05:23:34;;;;;;;62.53;44.38;;;19.00;99.90;;;;;;5076018;28;20557;-71
2021/09/10 05:26:00;;;;;;;60.95;45.00;;;19.00;99.90;;;;;;5076557;28;20536;-71
2021/09/10 05:28:26;;;;;;;59.08;44.30;;;19.00;99.90;;;;;;5076006;28;20120;-72
2021/09/10 05:30:52;;;;;;;74.82;50.33;;;18.90;99.90;;;;;;5075934;28;20044;-70
2021/09/10 05:33:17;;;;;;;66.18;47.63;;;18.90;99.90;;;;;;5075951;28;20162;-70
2021/09/10 05:35:44;;;;;;;69.00;49.00;;;18.90;99.90;;;;;;5076218;28;20392;-70
2021/09/10 05:38:10;;;;;;;67.50;46.28;;;18.90;99.90;;;;;;5074560;28;20504;-71
2021/09/10 05:40:35;;;;;;;69.10;48.58;;;18.90;99.90;;;;;;5075138;28;20076;-72
2021/09/10 05:43:01;;;;;;;65.03;46.30;;;18.90;99.90;;;;;;5075574;28;20497;-72
2021/09/10 05:45:27;;;;;;;72.53;50.55;;;18.90;99.90;;;;;;5075689;28;20362;-72
2021/09/10 05:47:52;;;;;;;73.00;49.95;;;18.90;99.90;;;;;;5075606;28;20048;-72
2021/09/10 05:50:18;;;;;;;71.45;49.08;;;18.80;99.90;;;;;;5074188;28;20049;-72
2021/09/10 05:52:47;;;;;;;66.95;48.10;;;18.80;99.90;;;;;;5075599;28;20041;-72
2021/09/10 05:55:13;;;;;;;81.20;51.60;;;18.80;99.90;;;;;;5074605;28;20033;-72
2021/09/10 05:57:39;;;;;;;68.30;49.10;;;18.80;99.90;;;;;;5075509;28;20040;-72
2021/09/10 06:00:05;;;;;;;78.00;50.10;;;18.80;99.90;;;;;;5074096;28;20041;-71
2021/09/10 06:02:31;;;;;;;72.47;46.65;;;18.80;99.90;;;;;;5074199;28;20047;-71
2021/09/10 06:04:56;;;;;;;73.35;49.40;;;18.80;99.90;;;;;;5075464;28;20403;-71
2021/09/10 06:07:22;;;;;;;70.43;48.88;;;18.80;99.90;;;;;;5075133;28;20045;-72
2021/09/10 06:09:47;;;;;;;71.40;47.58;;;18.80;99.90;;;;;;5075038;28;20033;-72
2021/09/10 06:12:13;;;;;;;60.28;44.03;;;18.80;99.90;;;;;;5074140;28;20037;-72
2021/09/10 06:14:38;;;;;;;62.53;43.40;;;18.70;99.90;;;;;;5075350;28;20044;-72
2021/09/10 06:17:04;;;;;;;57.63;41.10;;;18.80;99.90;;;;;;5073921;28;20041;-72
2021/09/10 06:19:31;;;;;;;63.78;44.17;;;18.80;99.90;;;;;;5074867;28;20050;-72
2021/09/10 06:21:56;;;;;;;64.82;43.15;;;18.70;99.90;;;;;;5075036;28;20381;-72
2021/09/10 06:24:22;;;;;;;53.75;38.85;;;18.70;99.90;;;;;;5074058;28;20051;-72
2021/09/10 06:26:48;;;;;;;56.38;39.50;;;18.80;99.90;;;;;;5075004;28;20093;-72
2021/09/10 06:29:13;;;;;;;55.40;39.45;;;18.70;99.90;;;;;;5074706;28;20075;-72
2021/09/10 06:31:39;;;;;;;58.90;39.88;;;18.70;99.90;;;;;;5056989;28;20052;-72
2021/09/10 06:34:06;;;;;;;60.38;42.00;;;18.70;99.90;;;;;;5074876;28;20051;-72
2021/09/10 06:36:32;;;;;;;63.15;42.08;;;18.70;99.90;;;;;;5073681;28;20064;-72
2021/09/10 06:38:58;;;;;;;54.15;39.60;;;18.70;99.90;;;;;;5074521;28;20039;-72
2021/09/10 06:41:23;;;;;;;58.30;39.50;;;18.80;99.90;;;;;;5073661;28;20052;-72
2021/09/10 06:43:49;;;;;;;56.20;38.40;;;18.80;99.90;;;;;;5073337;28;20041;-72
2021/09/10 06:46:14;;;;;;;49.38;37.25;;;18.90;99.90;;;;;;5075357;28;20036;-71
2021/09/10 06:48:40;;;;;;;52.88;37.17;;;18.90;99.90;;;;;;5074915;28;20046;-72
2021/09/10 06:51:06;;;;;;;46.78;35.47;;;18.90;99.90;;;;;;5073041;28;20044;-72
2021/09/10 06:53:34;;;;;;;50.55;36.10;;;18.90;99.90;;;;;;5073116;28;20041;-72
2021/09/10 06:55:59;;;;;;;45.25;32.33;;;19.00;99.90;;;;;;5074389;28;20033;-72
2021/09/10 06:58:25;;;;;;;47.03;33.22;;;19.00;99.90;;;;;;5074175;28;20493;-71
2021/09/10 07:00:51;;;;;;;38.13;29.88;;;19.10;99.90;;;;;;5056050;28;20048;-72
2021/09/10 07:03:16;;;;;;;39.08;30.17;;;19.10;99.90;;;;;;5073124;28;20040;-71
2021/09/10 07:05:42;;;;;;;44.33;27.05;;;19.20;99.90;;;;;;5074245;28;20075;-71
2021/09/10 07:08:08;;;;;;;31.00;23.92;;;19.40;99.90;;;;;;5073650;28;20040;-72
2021/09/10 07:10:33;;;;;;;31.48;24.10;;;19.50;99.90;;;;;;5074098;28;20454;-71
2021/09/10 07:12:59;;;;;;;27.30;21.60;;;19.50;99.90;;;;;;5073901;28;20036;-71
2021/09/10 07:15:25;;;;;;;28.35;21.15;;;19.60;99.90;;;;;;5072914;28;20423;-72
2021/09/10 07:17:50;;;;;;;31.02;21.67;;;19.70;99.90;;;;;;5073053;28;20040;-71
2021/09/10 07:20:16;;;;;;;24.73;19.00;;;19.70;99.90;;;;;;5073332;28;20386;-72
2021/09/10 07:22:41;;;;;;;26.65;19.70;;;19.70;99.90;;;;;;5072741;28;20377;-72
2021/09/10 07:25:08;;;;;;;23.85;19.27;;;19.80;99.90;;;;;;5073808;28;20047;-72
2021/09/10 07:27:33;;;;;;;28.15;20.30;;;19.80;99.90;;;;;;5072517;28;20041;-72
2021/09/10 07:29:59;;;;;;;31.05;21.75;;;19.80;99.90;;;;;;5073472;28;20127;-71
2021/09/10 07:32:25;;;;;;;31.92;21.45;;;19.80;99.90;;;;;;5074084;28;20123;-72
2021/09/10 07:34:51;;;;;;;31.33;20.65;;;19.90;99.90;;;;;;5073724;28;20119;-71
2021/09/10 07:37:16;;;;;;;36.45;25.85;;;20.00;99.90;;;;;;5073853;28;20094;-72
2021/09/10 07:39:42;;;;;;;32.05;25.85;;;20.00;99.90;;;;;;5073277;28;20508;-72
2021/09/10 07:42:07;;;;;;;34.97;25.65;;;20.10;99.90;;;;;;5073761;28;20033;-72
2021/09/10 07:44:33;;;;;;;39.10;30.48;;;20.10;99.90;;;;;;5073603;28;20040;-72
2021/09/10 07:46:58;;;;;;;42.55;31.52;;;20.20;99.90;;;;;;5072203;28;20051;-72
2021/09/10 07:49:24;;;;;;;49.83;34.88;;;20.20;99.90;;;;;;5073171;28;20036;-72
2021/09/10 07:51:51;;;;;;;47.22;34.75;;;20.20;99.90;;;;;;5073314;28;20048;-72
2021/09/10 07:54:16;;;;;;;45.92;34.63;;;20.20;99.90;;;;;;5072431;28;20048;-72
2021/09/10 07:56:42;;;;;;;50.40;34.95;;;20.20;99.90;;;;;;5073365;28;20507;-72
2021/09/10 07:59:08;;;;;;;46.42;33.25;;;20.20;99.90;;;;;;5073343;28;20427;-69
2021/09/10 08:01:33;;;;;;;48.38;34.95;;;20.20;99.90;;;;;;5072209;28;20052;-69
2021/09/10 08:03:59;;;;;;;52.70;36.38;;;20.20;99.90;;;;;;5073282;28;20420;-71
2021/09/10 08:06:25;;;;;;;58.22;41.35;;;20.30;99.90;;;;;;5072381;28;20041;-71
2021/09/10 08:08:51;;;;;;;55.45;39.60;;;20.30;99.90;;;;;;5055611;28;20044;-71
2021/09/10 08:11:16;;;;;;;58.60;40.60;;;20.40;99.90;;;;;;5073253;28;20113;-71
2021/09/10 08:13:42;;;;;;;59.88;41.05;;;20.50;99.90;;;;;;5072166;28;20094;-71
2021/09/10 08:16:08;;;;;;;51.83;37.58;;;20.40;99.90;;;;;;5072056;28;20052;-71
2021/09/10 08:18:34;;;;;;;57.47;39.65;;;20.40;99.90;;;;;;5073001;28;20401;-71
2021/09/10 08:21:00;;;;;;;56.60;39.97;;;20.50;99.90;;;;;;5073450;28;20047;-70
2021/09/10 08:23:25;;;;;;;58.47;40.00;;;20.50;99.90;;;;;;5055797;28;20044;-70
2021/09/10 08:25:52;;;;;;;53.72;40.33;;;20.50;99.90;;;;;;5073200;28;20044;-71
2021/09/10 08:28:18;;;;;;;54.97;39.20;;;20.50;99.90;;;;;;5073907;28;20040;-71
2021/09/10 08:30:46;;;;;;;56.03;38.78;;;20.60;99.90;;;;;;5074343;28;20094;-72
2021/09/10 08:33:12;;;;;;;54.45;38.72;;;20.50;99.90;;;;;;5059200;28;20083;-72
2021/09/10 08:35:39;;;;;;;55.75;38.42;;;20.60;99.90;;;;;;5077225;28;20044;-72
2021/09/10 08:38:05;;;;;;;57.72;39.97;;;20.60;99.90;;;;;;5076041;28;20044;-72
2021/09/10 08:40:33;;;;;;;50.35;37.85;;;20.70;99.90;;;;;;5076732;28;20453;-72
2021/09/10 08:42:59;;;;;;;52.63;37.50;;;20.70;99.90;;;;;;5077214;28;20044;-71
2021/09/10 08:45:29;;;;;;;55.38;38.47;;;20.70;99.90;;;;;;5058994;28;20036;-72
2021/09/10 08:47:55;;;;;;;52.88;37.00;;;20.70;99.90;;;;;;5075526;28;20049;-72
2021/09/10 08:50:21;;;;;;;54.72;37.92;;;20.70;99.90;;;;;;5076734;28;20039;-72
2021/09/10 08:52:47;;;;;;;56.42;37.25;;;20.80;99.90;;;;;;5076625;28;20032;-72
2021/09/10 08:55:16;;;;;;;51.33;37.70;;;20.70;99.90;;;;;;5076797;28;20046;-72
2021/09/10 08:57:49;;;;;;;58.13;39.60;;;20.80;99.90;;;;;;5076753;28;20047;-72
2021/09/10 09:00:17;;;;;;;55.90;37.75;;;20.80;99.90;;;;;;5076215;28;20040;-72
2021/09/10 09:03:05;;;;;;;59.63;39.00;;;20.80;99.90;;;;;;5076494;28;20083;-72
2021/09/10 09:05:31;;;;;;;54.58;37.70;;;20.90;99.90;;;;;;5075642;28;20040;-72
2021/09/10 09:08:12;;;;;;;60.80;40.47;;;20.80;99.90;;;;;;5076551;28;20044;-71
2021/09/10 09:10:56;;;;;;;53.55;38.33;;;20.90;99.90;;;;;;5076269;28;20056;-71
2021/09/10 09:13:28;;;;;;;58.03;37.17;;;20.90;99.90;;;;;;5074846;28;20051;-72
2021/09/10 09:16:30;;;;;;;56.30;36.67;;;20.90;99.90;;;;;;5079291;28;21164;-72
2021/09/10 09:19:01;;;;;;;56.83;38.50;;;20.90;99.90;;;;;;5096219;28;20051;-71
2021/09/10 09:21:32;;;;;;;57.17;37.83;;;20.90;99.90;;;;;;5096969;28;20137;-72
2021/09/10 09:24:15;;;;;;;59.20;38.08;;;20.90;99.90;;;;;;5095897;28;20185;-71
2021/09/10 09:26:42;;;;;;;51.05;35.42;;;20.90;99.90;;;;;;5094144;28;20494;-71
2021/09/10 09:29:14;;;;;;;56.95;38.65;;;21.00;99.90;;;;;;5074580;28;20404;-72
2021/09/10 09:31:40;;;;;;;58.88;39.03;;;21.00;99.90;;;;;;5075983;28;20382;-71
2021/09/10 09:34:07;;;;;;;57.55;38.50;;;21.00;99.90;;;;;;5076099;28;20032;-72
2021/09/10 09:36:33;;;;;;;58.00;38.50;;;21.00;99.90;;;;;;5057910;28;20044;-72
2021/09/10 09:39:07;;;;;;;57.00;39.00;;;21.10;99.90;;;;;;5075884;28;20045;-72
2021/09/10 09:41:45;;;;;;;56.63;38.58;;;21.10;99.90;;;;;;5074010;28;20060;-73
2021/09/10 09:44:15;;;;;;;57.03;37.47;;;21.10;99.90;;;;;;5076269;28;20135;-73
2021/09/10 09:46:41;;;;;;;53.38;37.25;;;21.20;99.90;;;;;;5074989;28;20051;-73
2021/09/10 09:49:12;;;;;;;61.30;37.33;;;21.20;99.90;;;;;;5075321;28;20045;-72
2021/09/10 09:51:56;;;;;;;60.72;41.33;;;21.20;99.90;;;;;;5076127;28;20040;-72
2021/09/10 09:54:22;;;;;;;63.55;39.35;;;21.20;99.90;;;;;;5075591;28;20049;-73
2021/09/10 09:56:49;;;;;;;66.97;40.45;;;21.20;99.90;;;;;;5074884;28;20041;-72
2021/09/10 09:59:16;;;;;;;66.13;42.25;;;21.20;99.90;;;;;;5075752;28;20040;-72
2021/09/10 10:01:43;;;;;;;61.25;38.92;;;21.30;99.90;;;;;;5075327;28;20086;-72
2021/09/10 10:04:09;;;;;;;59.05;38.15;;;21.30;99.90;;;;;;5075126;28;20052;-75
2021/09/10 10:06:36;;;;;;;54.95;35.75;;;21.30;99.90;;;;;;5075002;28;20548;-76
2021/09/10 10:09:13;;;;;;;50.88;38.10;;;21.50;99.90;;;;;;5073696;28;20125;-75
2021/09/10 10:11:46;;;;;;;52.63;34.45;;;21.70;99.90;;;;;;5075214;28;20036;-75
2021/09/10 10:14:32;;;;;;;48.08;33.40;;;21.70;99.90;;;;;;5074000;28;20496;-75
2021/09/10 10:17:01;;;;;;;49.35;33.85;;;21.90;99.90;;;;;;5075956;28;20102;-75
2021/09/10 10:19:33;;;;;;;47.28;33.00;;;22.00;99.90;;;;;;5056673;28;20052;-75
2021/09/10 10:22:02;;;;;;;47.20;34.03;;;22.10;99.90;;;;;;5074999;28;20048;-74
2021/09/10 10:24:43;;;;;;;44.28;32.55;;;22.30;99.90;;;;;;5074920;28;20062;-75
2021/09/10 10:27:31;;;;;;;43.42;31.77;;;22.40;99.90;;;;;;5075301;28;20362;-74
2021/09/10 10:29:59;;;;;;;41.15;32.28;;;22.40;99.90;;;;;;5075382;28;20369;-75
2021/09/10 10:32:39;;;;;;;44.38;32.67;;;22.40;99.90;;;;;;5073538;28;20558;-75
2021/09/10 10:35:23;;;;;;;47.17;32.15;;;22.40;99.90;;;;;;5074419;28;20101;-75
2021/09/10 10:38:03;;;;;;;49.72;32.97;;;22.40;99.90;;;;;;5075015;28;20440;-75
2021/09/10 10:40:44;;;;;;;44.60;32.47;;;22.40;99.90;;;;;;5074357;28;20040;-74
2021/09/10 10:43:30;;;;;;;45.47;31.88;;;22.60;99.90;;;;;;5073756;28;20040;-75
2021/09/10 10:46:00;;;;;;;45.60;31.73;;;22.70;99.90;;;;;;5073406;28;20595;-74
2021/09/10 10:48:29;;;;;;;43.53;30.13;;;22.70;99.90;;;;;;5056872;28;20040;-74
2021/09/10 10:51:02;;;;;;;40.10;30.85;;;22.80;99.90;;;;;;5074529;28;20043;-76
2021/09/10 10:53:54;;;;;;;38.78;28.90;;;22.80;99.90;;;;;;5072427;28;20405;-75
2021/09/10 10:56:28;;;;;;;40.28;30.88;;;22.90;99.90;;;;;;5073633;28;20067;-75
2021/09/10 10:59:13;;;;;;;36.00;27.88;;;22.80;99.90;;;;;;5056493;28;20481;-75
2021/09/10 11:05:08;;;;;;;33.27;26.37;;;22.80;99.90;;;;;;5074265;28;20048;-73
2021/09/10 11:07:34;;;;;;;33.40;27.30;;;22.70;99.90;;;;;;5055965;28;20412;-72
2021/09/10 11:10:14;;;;;;;38.33;27.20;;;22.80;99.90;;;;;;5073741;28;20048;-73
2021/09/10 11:12:41;;;;;;;37.42;29.15;;;22.80;99.90;;;;;;5071171;28;20501;-73
2021/09/10 11:15:31;;;;;;;35.50;27.70;;;22.70;99.90;;;;;;5071517;28;20041;-74
2021/09/10 11:17:59;;;;;;;39.47;30.67;;;22.70;99.90;;;;;;5072926;28;20115;-73
2021/09/10 11:20:29;;;;;;;34.28;28.13;;;22.70;99.90;;;;;;5072418;28;20047;-72
2021/09/10 11:22:55;;;;;;;35.83;28.27;;;22.60;99.90;;;;;;5073887;28;20040;-73
2021/09/10 11:25:27;;;;;;;36.17;28.15;;;22.60;99.90;;;;;;5073812;28;20040;-74
2021/09/10 11:27:53;;;;;;;31.20;24.67;;;22.70;99.90;;;;;;5055990;28;20040;-72
2021/09/10 11:30:19;;;;;;;31.63;26.58;;;22.70;99.90;;;;;;5055859;28;20290;-72
2021/09/10 11:32:44;;;;;;;32.22;26.50;;;22.80;99.90;;;;;;5056097;28;20040;-72
2021/09/10 11:35:19;;;;;;;31.58;26.48;;;22.90;99.90;;;;;;5072426;28;20110;-73
2021/09/10 11:37:56;;;;;;;31.13;25.33;;;23.00;99.90;;;;;;5074014;28;20032;-74
2021/09/10 11:40:40;;;;;;;29.52;24.70;;;23.10;99.90;;;;;;5073446;28;20527;-74
2021/09/10 11:43:24;;;;;;;29.60;25.08;;;23.20;99.90;;;;;;5072341;28;20044;-73
2021/09/10 11:46:05;;;;;;;31.25;25.45;;;23.20;99.90;;;;;;5072559;28;20572;-74
2021/09/10 11:48:34;;;;;;;30.25;25.58;;;23.10;99.90;;;;;;5073229;28;20041;-74
2021/09/10 11:51:01;;;;;;;31.67;25.30;;;23.10;99.90;;;;;;5055477;28;20045;-73
2021/09/10 11:53:47;;;;;;;31.75;25.08;;;23.10;99.90;;;;;;5073623;28;20040;-74
2021/09/10 11:56:15;;;;;;;29.52;26.15;;;23.10;99.90;;;;;;5074037;28;20503;-74
2021/09/10 11:58:43;;;;;;;29.23;25.10;;;23.10;99.90;;;;;;5072067;28;20036;-74
2021/09/10 12:01:20;;;;;;;31.88;26.45;;;23.20;99.90;;;;;;5073540;28;20070;-74
2021/09/10 12:03:48;;;;;;;29.13;25.92;;;23.20;99.90;;;;;;5073304;28;20132;-73
2021/09/10 12:06:19;;;;;;;26.58;23.77;;;23.20;99.90;;;;;;5072961;28;20036;-74
2021/09/10 12:09:14;;;;;;;27.40;23.65;;;23.20;99.90;;;;;;5072741;28;20076;-74
2021/09/10 12:11:58;;;;;;;33.33;25.92;;;23.20;99.90;;;;;;5073531;28;20098;-73
2021/09/10 12:14:50;;;;;;;28.02;24.35;;;23.20;99.90;;;;;;5072664;28;20388;-72
2021/09/10 12:17:22;;;;;;;28.50;24.35;;;23.20;99.90;;;;;;5063211;28;20109;-73
2021/09/10 12:20:03;;;;;;;27.00;24.02;;;23.20;99.90;;;;;;5072763;28;20364;-73
2021/09/10 12:22:50;;;;;;;28.85;22.40;;;23.30;99.90;;;;;;5071552;28;20523;-72
2021/09/10 12:25:25;;;;;;;27.50;22.63;;;23.50;99.90;;;;;;5072342;28;20040;-73
2021/09/10 12:27:56;;;;;;;27.02;23.13;;;23.50;99.90;;;;;;5072978;28;20094;-73
2021/09/10 12:30:25;;;;;;;28.92;24.05;;;23.60;99.90;;;;;;5071408;28;20038;-72
2021/09/10 12:32:51;;;;;;;28.77;24.17;;;23.70;99.90;;;;;;5072011;28;20037;-75
2021/09/10 12:35:16;;;;;;;29.25;24.27;;;23.70;99.90;;;;;;5072951;28;20041;-72
2021/09/10 12:38:00;;;;;;;29.70;24.73;;;23.70;99.90;;;;;;5072811;28;20048;-72